TimeCDT,TemperatureF,Dew PointF,Humidity,Sea Level PressureIn,VisibilityMPH,Wind Direction,Wind SpeedMPH,Gust SpeedMPH,PrecipitationIn,Events,Conditions,WindDirDegrees,DateUTC
12:53 AM,70.0,59.0,68,29.89,8.0,South,10.4,-,N/A,,Clear,170,2013-07-12 05:53:00
1:53 AM,70.0,57.9,65,29.88,10.0,South,11.5,-,N/A,,Clear,170,2013-07-12 06:53:00
2:53 AM,71.1,59.0,66,29.87,9.0,SSE,11.5,-,N/A,,Clear,160,2013-07-12 07:53:00
3:53 AM,69.1,59.0,70,29.86,10.0,SSE,9.2,-,N/A,,Clear,150,2013-07-12 08:53:00
4:53 AM,70.0,59.0,68,29.88,10.0,South,11.5,-,N/A,,Mostly Cloudy,170,2013-07-12 09:53:00
5:53 AM,70.0,59.0,68,29.88,8.0,SSE,10.4,-,N/A,,Scattered Clouds,150,2013-07-12 10:53:00
6:53 AM,70.0,59.0,68,29.88,9.0,SSE,13.8,-,N/A,,Clear,160,2013-07-12 11:53:00
7:53 AM,70.0,59.0,68,29.87,10.0,South,13.8,25.3,N/A,,Clear,170,2013-07-12 12:53:00
8:53 AM,73.9,61.0,64,29.87,10.0,South,13.8,20.7,N/A,,Scattered Clouds,180,2013-07-12 13:53:00
9:53 AM,78.1,61.0,56,29.85,10.0,South,12.7,-,N/A,,Clear,180,2013-07-12 14:53:00
10:53 AM,81.0,63.0,54,29.83,10.0,South,13.8,24.2,N/A,,Clear,170,2013-07-12 15:53:00
11:53 AM,84.0,64.0,51,29.82,10.0,South,18.4,24.2,N/A,,Clear,170,2013-07-12 16:53:00
12:53 PM,86.0,64.9,49,29.81,10.0,South,21.9,28.8,N/A,,Clear,180,2013-07-12 17:53:00
1:53 PM,88.0,66.0,48,29.80,10.0,South,19.6,28.8,N/A,,Clear,180,2013-07-12 18:53:00
2:53 PM,89.1,66.0,46,29.80,10.0,South,20.7,26.5,N/A,,Clear,170,2013-07-12 19:53:00
3:53 PM,89.1,66.0,46,29.80,10.0,South,19.6,32.2,N/A,,Clear,190,2013-07-12 20:53:00
4:53 PM,89.1,68.0,50,29.79,10.0,South,16.1,25.3,N/A,,Clear,170,2013-07-12 21:53:00
5:53 PM,88.0,68.0,51,29.81,10.0,South,15.0,28.8,N/A,,Scattered Clouds,190,2013-07-12 22:53:00
6:53 PM,84.9,69.1,59,29.79,10.0,South,13.8,-,N/A,,Mostly Cloudy,180,2013-07-12 23:53:00
7:53 PM,84.0,68.0,58,29.78,10.0,South,16.1,24.2,N/A,,Partly Cloudy,180,2013-07-13 00:53:00
8:53 PM,82.9,66.9,58,29.76,10.0,South,16.1,-,N/A,,Scattered Clouds,170,2013-07-13 01:53:00
9:53 PM,80.1,66.9,64,29.78,10.0,South,18.4,26.5,0.00,Rain,Light Rain,170,2013-07-13 02:53:00
10:53 PM,78.1,66.9,68,29.83,10.0,SW,9.2,-,0.00,,Overcast,220,2013-07-13 03:53:00
11:53 PM,73.0,71.1,93,29.86,4.0,WSW,4.6,-,0.08,Rain,Light Rain,250,2013-07-13 04:53:00